createdAt,value
2022-10-30T00:01:14.687Z,102189.84
2022-10-30T00:03:42.348Z,102184.87
2022-10-30T00:06:10.264Z,102178.69
2022-10-30T00:08:37.939Z,102185.20
2022-10-30T00:11:23.821Z,102177.41
2022-10-30T00:13:51.443Z,102180.05
2022-10-30T00:16:19.324Z,102182.28
2022-10-30T00:18:46.973Z,102187.35
2022-10-30T00:21:16.659Z,102187.80
2022-10-30T00:23:52.264Z,102183.33
2022-10-30T00:26:21.775Z,102181.73
2022-10-30T00:28:54.332Z,102188.76
2022-10-30T00:31:23.301Z,102187.16
2022-10-30T00:33:55.434Z,102185.42
2022-10-30T00:36:23.537Z,102186.70
2022-10-30T00:38:51.359Z,102180.45
2022-10-30T00:41:24.815Z,102171.85
2022-10-30T00:43:53.592Z,102172.21
2022-10-30T00:46:25.958Z,102172.67
2022-10-30T00:49:04.261Z,102168.65
2022-10-30T00:51:34.435Z,102170.87
2022-10-30T00:54:06.656Z,102168.94
2022-10-30T00:56:34.761Z,102167.01
2022-10-30T00:59:07.773Z,102178.81
2022-10-30T01:01:39.800Z,102165.73
2022-10-30T01:04:08.320Z,102165.28
2022-10-30T01:06:41.105Z,102166.29
2022-10-30T01:09:08.951Z,102166.13
2022-10-30T01:11:36.640Z,102159.59
2022-10-30T01:14:08.384Z,102155.92
2022-10-30T01:17:17.504Z,102159.72
2022-10-30T01:20:16.298Z,102156.74
2022-10-30T01:23:13.165Z,102158.90
2022-10-30T01:26:12.988Z,102154.95
2022-10-30T01:28:59.400Z,102147.91
2022-10-30T01:31:46.936Z,102159.85
2022-10-30T01:34:56.342Z,102147.72
2022-10-30T01:37:32.191Z,102151.05
2022-10-30T01:40:10.646Z,102145.00
2022-10-30T01:42:54.606Z,102144.05
2022-10-30T01:45:49.241Z,102149.32
2022-10-30T01:48:16.799Z,102138.98
2022-10-30T01:51:03.075Z,102145.20
2022-10-30T01:53:42.873Z,102145.20
2022-10-30T01:56:22.985Z,102137.84
2022-10-30T01:58:50.559Z,102133.52
2022-10-30T02:01:19.650Z,102140.52
2022-10-30T02:03:47.771Z,102122.18
2022-10-30T02:06:15.453Z,102123.91
2022-10-30T02:08:43.075Z,102127.38
2022-10-30T02:11:11.640Z,102129.57
2022-10-30T02:13:39.395Z,102119.73
2022-10-30T02:16:07.557Z,102120.19
2022-10-30T02:18:35.243Z,102119.73
2022-10-30T02:21:03.360Z,102108.25
2022-10-30T02:23:31.088Z,102109.98
2022-10-30T02:25:58.750Z,102112.37
2022-10-30T02:28:26.372Z,102105.05
2022-10-30T02:30:54.032Z,102110.77
2022-10-30T02:33:21.732Z,102112.04
2022-10-30T02:35:49.340Z,102111.39
2022-10-30T02:38:16.940Z,102112.66
2022-10-30T02:40:44.536Z,102112.53
2022-10-30T02:43:12.205Z,102109.49
2022-10-30T02:45:39.795Z,102110.31
2022-10-30T02:48:08.270Z,102112.73
2022-10-30T02:50:36.005Z,102106.52
2022-10-30T02:53:03.694Z,102098.70
2022-10-30T02:55:31.317Z,102102.85
2022-10-30T02:57:58.879Z,102101.25
2022-10-30T03:00:26.467Z,102103.12
2022-10-30T03:02:57.974Z,102113.94
2022-10-30T03:05:26.469Z,102121.30
2022-10-30T03:07:56.486Z,102109.20
2022-10-30T03:10:24.407Z,102116.03
2022-10-30T03:12:52.066Z,102115.25
2022-10-30T03:15:19.754Z,102112.83
2022-10-30T03:17:47.408Z,102125.58
2022-10-30T03:20:15.008Z,102114.10
2022-10-30T03:22:42.613Z,102115.70
2022-10-30T03:25:10.593Z,102109.20
2022-10-30T03:27:38.232Z,102116.03
2022-10-30T03:30:06.199Z,102113.52
2022-10-30T03:32:33.774Z,102118.13
2022-10-30T03:35:01.434Z,102112.17
2022-10-30T03:37:29.034Z,102119.76
2022-10-30T03:39:56.642Z,102126.10
2022-10-30T03:42:24.282Z,102129.73
2022-10-30T03:44:51.893Z,102126.98
2022-10-30T03:47:19.500Z,102125.38
2022-10-30T03:49:47.070Z,102127.61
2022-10-30T03:52:14.702Z,102131.73
2022-10-30T03:54:42.309Z,102128.88
2022-10-30T03:57:09.922Z,102129.66
2022-10-30T03:59:37.581Z,102126.66
2022-10-30T04:02:05.374Z,102128.13
2022-10-30T04:04:33.117Z,102130.23
2022-10-30T04:07:00.735Z,102125.38
2022-10-30T04:09:28.370Z,102131.95
2022-10-30T04:11:55.977Z,102130.35
2022-10-30T04:14:23.599Z,102133.20
2022-10-30T04:16:51.190Z,102124.60
2022-10-30T04:19:18.796Z,102122.08
2022-10-30T04:21:48.839Z,102120.35
2022-10-30T04:24:18.270Z,102117.18
2022-10-30T04:26:46.161Z,102111.87
2022-10-30T04:29:13.788Z,102125.77
2022-10-30T04:31:41.399Z,102129.41
2022-10-30T04:34:09.112Z,102121.63
2022-10-30T04:36:36.720Z,102121.13
2022-10-30T04:39:04.570Z,102129.18
2022-10-30T04:41:32.427Z,102122.51
2022-10-30T04:44:00.071Z,102116.98
2022-10-30T04:46:27.685Z,102117.66
2022-10-30T04:48:55.558Z,102116.72
2022-10-30T04:51:23.235Z,102117.70
2022-10-30T04:53:50.857Z,102108.64
2022-10-30T04:56:18.512Z,102109.79
2022-10-30T04:58:46.128Z,102106.12
2022-10-30T05:01:13.990Z,102104.39
2022-10-30T05:03:41.666Z,102107.56
2022-10-30T05:06:27.288Z,102096.94
2022-10-30T05:08:55.915Z,102100.11
2022-10-30T05:11:23.672Z,102098.51
2022-10-30T05:13:51.306Z,102100.89
2022-10-30T05:16:18.949Z,102090.23
2022-10-30T05:18:46.595Z,102095.53
2022-10-30T05:21:14.277Z,102094.25
2022-10-30T05:23:41.944Z,102088.17
2022-10-30T05:26:09.525Z,102091.84
2022-10-30T05:28:37.173Z,102089.77
2022-10-30T05:31:04.832Z,102079.90
2022-10-30T05:33:32.480Z,102081.96
2022-10-30T05:36:00.124Z,102089.28
2022-10-30T05:38:27.711Z,102088.95
2022-10-30T05:40:55.301Z,102081.17
2022-10-30T05:43:22.948Z,102083.37
2022-10-30T05:45:51.266Z,102085.26
2022-10-30T05:48:18.951Z,102087.78
2022-10-30T05:50:46.695Z,102090.16
2022-10-30T05:53:14.403Z,102093.50
2022-10-30T05:55:42.012Z,102091.57
2022-10-30T05:58:11.274Z,102089.97
2022-10-30T06:00:40.307Z,102092.52
2022-10-30T06:03:11.501Z,102085.66
2022-10-30T06:05:39.314Z,102088.17
2022-10-30T06:08:08.390Z,102089.45
2022-10-30T06:10:36.244Z,102094.84
2022-10-30T06:13:07.665Z,102086.70
2022-10-30T06:15:35.396Z,102091.51
2022-10-30T06:18:03.211Z,102092.65
2022-10-30T06:20:32.078Z,102093.47
2022-10-30T06:23:02.312Z,102090.10
2022-10-30T06:25:36.439Z,102091.24
2022-10-30T06:28:08.577Z,102089.19
2022-10-30T06:30:36.164Z,102092.39
2022-10-30T06:33:06.109Z,102094.77
2022-10-30T06:35:33.887Z,102091.77
2022-10-30T06:38:01.638Z,102097.49
2022-10-30T06:40:31.078Z,102101.19
2022-10-30T06:42:59.578Z,102098.30
2022-10-30T06:45:27.408Z,102093.05
2022-10-30T06:47:55.369Z,102099.71
2022-10-30T06:50:23.522Z,102106.22
2022-10-30T06:52:51.387Z,102096.34
2022-10-30T06:55:19.446Z,102105.34
2022-10-30T06:57:47.156Z,102100.86
2022-10-30T07:00:15.142Z,102110.05
2022-10-30T07:02:42.806Z,102114.49
2022-10-30T07:05:10.551Z,102107.17
2022-10-30T07:07:38.207Z,102108.31
2022-10-30T07:10:06.115Z,102113.35
2022-10-30T07:12:33.759Z,102115.77
2022-10-30T07:15:01.381Z,102116.42
2022-10-30T07:17:29.051Z,102119.66
2022-10-30T07:19:56.760Z,102114.73
2022-10-30T07:22:24.423Z,102107.70
2022-10-30T07:24:52.043Z,102116.52
2022-10-30T07:27:19.702Z,102123.06
2022-10-30T07:29:47.320Z,102130.84
2022-10-30T07:32:14.984Z,102132.94
2022-10-30T07:34:42.892Z,102133.27
2022-10-30T07:37:10.516Z,102132.94
2022-10-30T07:39:38.156Z,102125.13
2022-10-30T07:42:05.897Z,102131.53
2022-10-30T07:44:33.494Z,102138.04
2022-10-30T07:47:01.109Z,102127.05
2022-10-30T07:49:28.755Z,102141.11
2022-10-30T07:51:56.354Z,102137.19
2022-10-30T07:54:24.073Z,102136.53
2022-10-30T07:56:51.661Z,102134.48
2022-10-30T07:59:19.254Z,102141.18
2022-10-30T08:01:47.081Z,102136.47
2022-10-30T08:04:15.160Z,102145.59
2022-10-30T08:06:42.767Z,102138.89
2022-10-30T08:09:11.406Z,102134.60
2022-10-30T08:11:39.060Z,102137.68
2022-10-30T08:14:06.733Z,102140.30
2022-10-30T08:16:34.387Z,102133.92
2022-10-30T08:19:02.129Z,102139.51
2022-10-30T08:21:29.695Z,102138.56
2022-10-30T08:23:57.348Z,102135.36
2022-10-30T08:26:24.928Z,102138.92
2022-10-30T08:28:52.548Z,102131.43
2022-10-30T08:31:20.201Z,102139.41
2022-10-30T08:33:47.812Z,102129.11
2022-10-30T08:36:15.417Z,102124.01
2022-10-30T08:38:43.115Z,102129.11
2022-10-30T08:41:10.801Z,102137.19
2022-10-30T08:43:39.994Z,102136.34
2022-10-30T08:46:07.649Z,102134.87
2022-10-30T08:48:35.274Z,102127.34
2022-10-30T08:51:03.057Z,102135.00
2022-10-30T08:53:30.687Z,102143.34
2022-10-30T08:55:58.269Z,102136.99
2022-10-30T08:58:28.242Z,102136.57
2022-10-30T09:01:01.016Z,102138.70
2022-10-30T09:03:29.095Z,102143.83
2022-10-30T09:05:59.994Z,102132.68
2022-10-30T09:08:28.566Z,102132.84
2022-10-30T09:10:59.591Z,102121.85
2022-10-30T09:13:27.448Z,102132.58
2022-10-30T09:15:55.057Z,102122.87
2022-10-30T09:18:22.706Z,102122.21
2022-10-30T09:20:50.695Z,102125.74
2022-10-30T09:23:18.331Z,102114.10
2022-10-30T09:25:45.951Z,102128.78
2022-10-30T09:28:13.549Z,102125.77
2022-10-30T09:30:41.174Z,102118.42
2022-10-30T09:33:10.002Z,102116.06
2022-10-30T09:35:38.191Z,102122.57
2022-10-30T09:38:06.216Z,102125.61
2022-10-30T09:40:46.026Z,102129.14
2022-10-30T09:43:50.219Z,102125.32
2022-10-30T09:46:36.026Z,102122.44
2022-10-30T09:49:33.342Z,102121.79
2022-10-30T09:52:15.321Z,102133.13
2022-10-30T09:54:55.088Z,102121.00
2022-10-30T09:57:37.489Z,102128.36
2022-10-30T10:00:16.158Z,102121.63
2022-10-30T10:03:04.069Z,102128.95
2022-10-30T10:06:00.977Z,102124.50
2022-10-30T10:09:02.289Z,102125.58
2022-10-30T10:11:38.354Z,102115.34
2022-10-30T10:14:16.023Z,102123.65
2022-10-30T10:16:46.748Z,102119.17
2022-10-30T10:19:34.575Z,102123.16
2022-10-30T10:22:04.810Z,102119.34
2022-10-30T10:24:36.321Z,102117.41
2022-10-30T10:27:31.731Z,102121.88
2022-10-30T10:29:59.285Z,102114.52
2022-10-30T10:32:30.094Z,102122.84
2022-10-30T10:35:08.475Z,102120.28
2022-10-30T10:37:43.257Z,102120.28
2022-10-30T10:40:13.861Z,102116.95
2022-10-30T10:42:48.578Z,102117.60
2022-10-30T10:45:26.179Z,102119.34
2022-10-30T10:48:18.099Z,102115.77
2022-10-30T10:50:53.072Z,102109.36
2022-10-30T10:53:41.731Z,102111.87
2022-10-30T10:56:11.285Z,102106.45
2022-10-30T10:58:51.391Z,102105.47
2022-10-30T11:01:25.886Z,102108.34
2022-10-30T11:04:12.101Z,102104.36
2022-10-30T11:06:47.542Z,102103.09
2022-10-30T11:09:23.879Z,102102.59
2022-10-30T11:11:53.503Z,102096.02
2022-10-30T11:14:22.678Z,102096.34
2022-10-30T11:16:59.355Z,102093.27
2022-10-30T11:19:27.167Z,102097.75
2022-10-30T11:21:56.386Z,102085.62
2022-10-30T11:24:34.299Z,102092.48
2022-10-30T11:27:31.734Z,102087.35
2022-10-30T11:30:05.787Z,102082.71
2022-10-30T11:32:35.935Z,102083.01
2022-10-30T11:35:09.319Z,102086.83
2022-10-30T11:37:40.024Z,102075.74
2022-10-30T11:40:19.764Z,102071.85
2022-10-30T11:43:03.386Z,102074.70
2022-10-30T11:45:35.371Z,102068.59
2022-10-30T11:48:05.191Z,102057.47
2022-10-30T11:50:34.578Z,102059.00
2022-10-30T11:53:11.450Z,102055.57
2022-10-30T11:55:42.303Z,102050.83
2022-10-30T11:58:11.060Z,102054.42
2022-10-30T12:00:41.979Z,102049.36
2022-10-30T12:03:29.963Z,102051.16
2022-10-30T12:06:12.565Z,102037.23
2022-10-30T12:08:40.152Z,102036.15
2022-10-30T12:11:08.131Z,102031.86
2022-10-30T12:13:40.655Z,102027.48
2022-10-30T12:16:19.797Z,102018.91
2022-10-30T12:18:59.257Z,102024.24
2022-10-30T12:21:29.287Z,102024.60
2022-10-30T12:24:04.520Z,102024.11
2022-10-30T12:26:32.217Z,102019.04
2022-10-30T12:29:03.689Z,102009.66
2022-10-30T12:31:40.286Z,102008.45
2022-10-30T12:34:19.385Z,102005.44
2022-10-30T12:36:54.765Z,102001.58
2022-10-30T12:39:43.092Z,102004.06
2022-10-30T12:42:16.516Z,102003.12
2022-10-30T12:44:54.208Z,102000.08
2022-10-30T12:47:44.079Z,101999.42
2022-10-30T12:50:28.344Z,102003.67
2022-10-30T12:53:02.291Z,102004.03
2022-10-30T12:55:40.897Z,101997.30
2022-10-30T12:58:32.573Z,102001.05
2022-10-30T13:01:14.879Z,101994.81
2022-10-30T13:03:54.669Z,101993.57
2022-10-30T13:06:28.938Z,101986.73
2022-10-30T13:09:20.404Z,101989.16
2022-10-30T13:12:02.096Z,101984.74
2022-10-30T13:15:04.669Z,101982.91
2022-10-30T13:17:32.510Z,101979.21
2022-10-30T13:20:01.261Z,101978.69
2022-10-30T13:22:35.059Z,101982.35
2022-10-30T13:25:25.516Z,101984.15
2022-10-30T13:27:59.256Z,101974.38
2022-10-30T13:30:35.015Z,101984.97
2022-10-30T13:33:14.763Z,101976.47
2022-10-30T13:36:05.228Z,101975.91
2022-10-30T13:38:48.323Z,101982.16
2022-10-30T13:41:42.225Z,101983.63
2022-10-30T13:44:43.821Z,101982.16
2022-10-30T13:47:23.415Z,101986.51
2022-10-30T13:50:08.350Z,101979.57
2022-10-30T13:52:39.889Z,101986.80
2022-10-30T13:55:49.254Z,101970.91
2022-10-30T13:58:39.005Z,101979.21
2022-10-30T14:01:16.423Z,101966.98
2022-10-30T14:04:11.398Z,101966.13
2022-10-30T14:06:57.755Z,101962.05
2022-10-30T14:09:31.248Z,101979.37
2022-10-30T14:12:03.386Z,101977.77
2022-10-30T14:14:32.520Z,101979.57
2022-10-30T14:17:11.369Z,101973.23
2022-10-30T14:20:13.277Z,101977.91
2022-10-30T14:22:42.053Z,101980.03
2022-10-30T14:25:17.248Z,101980.42
2022-10-30T14:27:56.292Z,101983.23
2022-10-30T14:30:24.187Z,101987.42
2022-10-30T14:32:53.542Z,101978.49
2022-10-30T14:35:39.273Z,101977.28
2022-10-30T14:38:23.938Z,101977.71
2022-10-30T14:40:54.572Z,101969.77
2022-10-30T14:43:37.540Z,101977.02
2022-10-30T14:46:18.462Z,101976.63
2022-10-30T14:49:14.214Z,101976.24
2022-10-30T14:51:51.026Z,101979.84
2022-10-30T14:54:23.414Z,101975.36
2022-10-30T14:56:55.261Z,101974.63
2022-10-30T14:59:31.504Z,101972.25
2022-10-30T15:02:03.915Z,101974.08
2022-10-30T15:05:07.127Z,101973.16
2022-10-30T15:08:20.970Z,101976.96
2022-10-30T15:11:06.860Z,101981.90
2022-10-30T15:13:34.695Z,101983.83
2022-10-30T15:16:06.633Z,101986.08
2022-10-30T15:18:34.579Z,101975.95
2022-10-30T15:21:06.868Z,101973.43
2022-10-30T15:23:37.487Z,101972.70
2022-10-30T15:26:19.066Z,101970.41
2022-10-30T15:28:51.236Z,101985.95
2022-10-30T15:31:18.879Z,101980.09
2022-10-30T15:33:46.508Z,101980.98
2022-10-30T15:36:42.154Z,101984.02
2022-10-30T15:39:13.948Z,101986.80
2022-10-30T15:41:51.072Z,101992.42
2022-10-30T15:44:27.969Z,101990.23
2022-10-30T15:46:57.692Z,101998.24
2022-10-30T15:49:35.462Z,101994.78
2022-10-30T15:52:06.628Z,102001.52
2022-10-30T15:54:35.007Z,101998.80
2022-10-30T15:57:36.942Z,102007.92
2022-10-30T15:59:54.176Z,102006.81
2022-10-30T16:02:24.675Z,102005.08
2022-10-30T16:04:52.366Z,102006.39
2022-10-30T16:07:25.974Z,102003.02
2022-10-30T16:09:59.083Z,102006.87
2022-10-30T16:12:28.641Z,102001.77
2022-10-30T16:14:57.403Z,102006.75
2022-10-30T16:17:26.883Z,102006.91
2022-10-30T16:20:00.841Z,102017.27
2022-10-30T16:22:33.018Z,102013.26
2022-10-30T16:25:01.334Z,102017.27
2022-10-30T16:27:29.001Z,102026.56
2022-10-30T16:30:01.678Z,102024.38
2022-10-30T16:32:32.259Z,102019.41
2022-10-30T16:35:02.675Z,102020.38
2022-10-30T16:37:37.487Z,102021.37
2022-10-30T16:40:15.318Z,102031.27
2022-10-30T16:42:48.824Z,102035.59
2022-10-30T16:45:19.540Z,102029.84
2022-10-30T16:47:52.638Z,102031.93
2022-10-30T16:50:21.833Z,102041.67
2022-10-30T16:52:50.725Z,102031.14
2022-10-30T16:55:23.397Z,102036.24
2022-10-30T16:57:59.164Z,102032.71
2022-10-30T17:00:32.755Z,102032.88
2022-10-30T17:03:09.543Z,102034.34
2022-10-30T17:05:38.349Z,102034.51
2022-10-30T17:08:18.942Z,102028.13
2022-10-30T17:10:58.608Z,102029.90
2022-10-30T17:13:35.162Z,102035.16
2022-10-30T17:16:16.829Z,102034.05
2022-10-30T17:18:46.590Z,102044.29
2022-10-30T17:21:17.137Z,102048.12
2022-10-30T17:23:50.322Z,102049.42
2022-10-30T17:26:19.696Z,102056.62
2022-10-30T17:28:48.647Z,102055.93
2022-10-30T17:31:19.240Z,102052.76
2022-10-30T17:33:48.572Z,102057.37
2022-10-30T17:36:16.231Z,102055.14
2022-10-30T17:38:44.076Z,102058.31
2022-10-30T17:41:15.738Z,102057.66
2022-10-30T17:43:53.281Z,102057.83
2022-10-30T17:46:21.040Z,102051.77
2022-10-30T17:48:48.756Z,102058.02
2022-10-30T17:51:18.785Z,102068.71
2022-10-30T17:53:49.295Z,102060.73
2022-10-30T17:56:32.456Z,102063.29
2022-10-30T17:59:00.124Z,102066.00
2022-10-30T18:01:28.241Z,102068.75
2022-10-30T18:03:56.848Z,102068.91
2022-10-30T18:06:27.349Z,102077.22
2022-10-30T18:08:55.453Z,102080.26
2022-10-30T18:11:25.180Z,102077.22
2022-10-30T18:13:53.955Z,102079.48
2022-10-30T18:16:21.603Z,102084.41
2022-10-30T18:18:49.508Z,102084.61
2022-10-30T18:21:19.966Z,102092.39
2022-10-30T18:23:55.070Z,102088.40
2022-10-30T18:26:27.886Z,102085.36
2022-10-30T18:28:55.780Z,102096.54
2022-10-30T18:31:25.098Z,102087.95
2022-10-30T18:33:53.198Z,102092.09
2022-10-30T18:36:23.606Z,102098.30
2022-10-30T18:38:53.160Z,102102.00
2022-10-30T18:41:25.042Z,102096.41
2022-10-30T18:43:52.721Z,102103.45
2022-10-30T18:46:20.381Z,102101.52
2022-10-30T18:48:48.123Z,102098.77
2022-10-30T18:51:26.963Z,102104.69
2022-10-30T18:53:55.981Z,102107.40
2022-10-30T18:56:31.636Z,102105.34
2022-10-30T18:59:01.980Z,102104.36
2022-10-30T19:01:33.214Z,102115.05
2022-10-30T19:04:05.153Z,102112.37
2022-10-30T19:06:35.171Z,102114.92
2022-10-30T19:09:03.089Z,102110.93
2022-10-30T19:11:31.881Z,102110.93
2022-10-30T19:14:00.637Z,102118.59
2022-10-30T19:16:28.594Z,102118.59
2022-10-30T19:18:56.239Z,102114.76
2022-10-30T19:21:26.567Z,102116.03
2022-10-30T19:23:56.129Z,102112.37
2022-10-30T19:26:23.758Z,102113.97
2022-10-30T19:28:51.356Z,102115.41
2022-10-30T19:31:20.581Z,102110.44
2022-10-30T19:33:52.895Z,102114.43
2022-10-30T19:36:29.833Z,102109.33
2022-10-30T19:38:57.628Z,102111.72
2022-10-30T19:41:25.727Z,102100.56
2022-10-30T19:43:54.319Z,102107.76
2022-10-30T19:46:22.627Z,102112.70
2022-10-30T19:48:59.049Z,102111.55
2022-10-30T19:51:30.308Z,102117.80
2022-10-30T19:53:58.006Z,102112.37
2022-10-30T19:56:25.819Z,102110.44
2022-10-30T19:58:53.418Z,102109.79
2022-10-30T20:01:21.287Z,102103.57
2022-10-30T20:03:49.076Z,102110.27
2022-10-30T20:06:17.190Z,102102.27
2022-10-30T20:08:44.856Z,102113.77
2022-10-30T20:11:12.541Z,102116.45
2022-10-30T20:13:40.211Z,102111.06
2022-10-30T20:16:08.380Z,102114.85
2022-10-30T20:18:37.168Z,102111.65
2022-10-30T20:21:11.196Z,102108.91
2022-10-30T20:23:39.727Z,102107.30
2022-10-30T20:26:16.752Z,102110.34
2022-10-30T20:28:46.035Z,102113.38
2022-10-30T20:31:14.184Z,102126.59
2022-10-30T20:33:41.856Z,102119.27
2022-10-30T20:36:13.731Z,102126.27
2022-10-30T20:38:41.664Z,102126.10
2022-10-30T20:41:21.888Z,102131.63
2022-10-30T20:43:51.201Z,102140.85
2022-10-30T20:46:19.475Z,102142.59
2022-10-30T20:48:47.364Z,102142.39
2022-10-30T20:51:15.644Z,102147.49
2022-10-30T20:53:43.362Z,102143.96
2022-10-30T20:56:12.752Z,102144.88
2022-10-30T20:58:41.027Z,102147.88
2022-10-30T21:01:08.754Z,102154.12
2022-10-30T21:03:36.480Z,102158.25
2022-10-30T21:06:04.290Z,102159.98
2022-10-30T21:08:35.158Z,102162.04
2022-10-30T21:11:05.122Z,102161.12
2022-10-30T21:13:35.120Z,102158.25
2022-10-30T21:16:05.551Z,102159.03
2022-10-30T21:18:33.525Z,102156.65
2022-10-30T21:21:03.148Z,102157.30
2022-10-30T21:23:31.332Z,102152.52
2022-10-30T21:26:07.075Z,102153.44
2022-10-30T21:28:34.841Z,102160.44
2022-10-30T21:31:08.009Z,102161.38
2022-10-30T21:33:37.249Z,102165.87
2022-10-30T21:36:12.945Z,102170.45
2022-10-30T21:38:45.656Z,102165.48
2022-10-30T21:41:15.664Z,102170.74
2022-10-30T21:43:44.008Z,102167.53
2022-10-30T21:46:13.482Z,102163.41
2022-10-30T21:48:41.234Z,102158.90
2022-10-30T21:51:15.138Z,102149.98
2022-10-30T21:53:43.422Z,102156.55
2022-10-30T21:56:18.057Z,102142.52
2022-10-30T21:58:46.181Z,102141.70
2022-10-30T22:01:17.238Z,102140.59
2022-10-30T22:03:45.313Z,102139.12
2022-10-30T22:06:15.816Z,102143.73
2022-10-30T22:08:47.566Z,102139.58
2022-10-30T22:11:16.186Z,102134.80
2022-10-30T22:13:44.111Z,102127.12
2022-10-30T22:16:13.822Z,102136.53
2022-10-30T22:18:42.088Z,102131.73
2022-10-30T22:21:12.513Z,102144.94
2022-10-30T22:23:41.257Z,102137.45
2022-10-30T22:26:15.577Z,102140.20
2022-10-30T22:28:44.179Z,102144.35
2022-10-30T22:31:19.808Z,102143.20
2022-10-30T22:33:47.830Z,102140.46
2022-10-30T22:36:25.347Z,102143.01
2022-10-30T22:39:16.037Z,102144.52
2022-10-30T22:41:43.867Z,102148.90
2022-10-30T22:44:18.485Z,102146.64
2022-10-30T22:46:46.562Z,102149.78
2022-10-30T22:49:14.184Z,102149.45
2022-10-30T22:51:41.871Z,102147.72
2022-10-30T22:54:15.210Z,102151.38
2022-10-30T22:56:43.264Z,102148.96
2022-10-30T22:59:13.500Z,102145.76
2022-10-30T23:01:42.696Z,102153.08
2022-10-30T23:04:12.179Z,102161.23
2022-10-30T23:06:39.914Z,102152.63
2022-10-30T23:09:15.557Z,102144.35
2022-10-30T23:11:43.623Z,102152.16
2022-10-30T23:14:11.235Z,102148.05
2022-10-30T23:16:38.963Z,102150.43
2022-10-30T23:19:06.613Z,102143.47
2022-10-30T23:21:34.280Z,102145.07
2022-10-30T23:24:05.265Z,102147.42
2022-10-30T23:26:36.071Z,102153.87
2022-10-30T23:29:04.882Z,102149.71
2022-10-30T23:31:41.900Z,102152.10
2022-10-30T23:34:15.155Z,102151.19
2022-10-30T23:36:44.284Z,102150.59
2022-10-30T23:39:15.812Z,102157.46
2022-10-30T23:41:43.969Z,102151.74
2022-10-30T23:44:14.513Z,102155.73
2022-10-30T23:46:42.639Z,102145.85
2022-10-30T23:49:10.248Z,102150.01
2022-10-30T23:51:38.663Z,102143.01
2022-10-30T23:54:06.304Z,102149.52
2022-10-30T23:56:33.945Z,102151.28
2022-10-30T23:59:01.947Z,102146.77
